createdAt,value
2022-10-09T00:01:17.269Z,100.00
2022-10-09T00:03:45.786Z,100.00
2022-10-09T00:06:15.423Z,100.00
2022-10-09T00:08:45.260Z,100.00
2022-10-09T00:11:23.478Z,100.00
2022-10-09T00:13:51.441Z,100.00
2022-10-09T00:16:20.183Z,100.00
2022-10-09T00:18:47.724Z,100.00
2022-10-09T00:21:20.330Z,100.00
2022-10-09T00:23:47.205Z,100.00
2022-10-09T00:26:14.014Z,100.00
2022-10-09T00:28:40.667Z,100.00
2022-10-09T00:31:09.387Z,100.00
2022-10-09T00:33:36.775Z,100.00
2022-10-09T00:36:04.890Z,100.00
2022-10-09T00:38:31.388Z,100.00
2022-10-09T00:40:57.725Z,100.00
2022-10-09T00:43:49.794Z,100.00
2022-10-09T00:46:25.235Z,100.00
2022-10-09T00:49:00.829Z,100.00
2022-10-09T00:51:29.330Z,100.00
2022-10-09T00:53:56.433Z,100.00
2022-10-09T00:56:24.434Z,100.00
2022-10-09T00:58:53.717Z,100.00
2022-10-09T01:01:20.312Z,100.00
2022-10-09T01:03:46.782Z,100.00
2022-10-09T01:06:27.085Z,100.00
2022-10-09T01:09:10.218Z,100.00
2022-10-09T01:11:48.933Z,100.00
2022-10-09T01:14:28.477Z,100.00
2022-10-09T01:17:10.649Z,100.00
2022-10-09T01:19:55.572Z,100.00
2022-10-09T01:22:47.821Z,100.00
2022-10-09T01:25:35.532Z,100.00
2022-10-09T01:28:05.122Z,100.00
2022-10-09T01:30:32.921Z,100.00
2022-10-09T01:32:59.436Z,100.00
2022-10-09T01:35:26.461Z,100.00
2022-10-09T01:37:54.698Z,100.00
2022-10-09T01:40:23.071Z,100.00
2022-10-09T01:42:49.696Z,100.00
2022-10-09T01:45:16.411Z,100.00
2022-10-09T01:47:43.269Z,100.00
2022-10-09T01:50:30.327Z,100.00
2022-10-09T01:53:04.785Z,100.00
2022-10-09T01:55:36.935Z,100.00
2022-10-09T01:58:13.355Z,100.00
2022-10-09T02:00:44.916Z,100.00
2022-10-09T02:03:15.144Z,100.00
2022-10-09T02:05:42.662Z,100.00
2022-10-09T02:08:12.341Z,100.00
2022-10-09T02:10:41.996Z,100.00
2022-10-09T02:13:08.583Z,100.00
2022-10-09T02:15:43.846Z,100.00
2022-10-09T02:18:13.149Z,100.00
2022-10-09T02:20:44.893Z,100.00
2022-10-09T02:23:11.777Z,100.00
2022-10-09T02:25:38.785Z,100.00
2022-10-09T02:28:07.019Z,100.00
2022-10-09T02:30:43.902Z,100.00
2022-10-09T02:33:10.250Z,100.00
2022-10-09T02:35:38.154Z,100.00
2022-10-09T02:38:04.464Z,100.00
2022-10-09T02:40:30.806Z,100.00
2022-10-09T02:42:57.268Z,100.00
2022-10-09T02:45:23.629Z,100.00
2022-10-09T02:47:50.050Z,100.00
2022-10-09T02:50:16.373Z,100.00
2022-10-09T02:52:42.702Z,100.00
2022-10-09T02:55:09.236Z,100.00
2022-10-09T02:57:35.549Z,100.00
2022-10-09T03:00:01.832Z,100.00
2022-10-09T03:02:28.277Z,100.00
2022-10-09T03:04:54.827Z,100.00
2022-10-09T03:07:21.116Z,100.00
2022-10-09T03:09:47.490Z,100.00
2022-10-09T03:12:16.025Z,100.00
2022-10-09T03:14:42.317Z,100.00
2022-10-09T03:17:08.608Z,100.00
2022-10-09T03:19:34.926Z,100.00
2022-10-09T03:22:01.242Z,100.00
2022-10-09T03:24:27.574Z,100.00
2022-10-09T03:26:53.892Z,100.00
2022-10-09T03:29:20.323Z,100.00
2022-10-09T03:31:52.209Z,100.00
2022-10-09T03:34:19.074Z,100.00
2022-10-09T03:36:45.430Z,100.00
2022-10-09T03:39:11.772Z,100.00
2022-10-09T03:41:38.086Z,100.00
2022-10-09T03:44:04.590Z,100.00
2022-10-09T03:46:30.980Z,100.00
2022-10-09T03:48:57.321Z,100.00
2022-10-09T03:51:23.702Z,100.00
2022-10-09T03:53:50.057Z,100.00
2022-10-09T03:56:16.410Z,100.00
2022-10-09T03:58:42.733Z,100.00
2022-10-09T04:01:09.438Z,100.00
2022-10-09T04:03:35.813Z,100.00
2022-10-09T04:06:02.147Z,100.00
2022-10-09T04:08:28.455Z,100.00
2022-10-09T04:10:58.790Z,100.00
2022-10-09T04:13:25.337Z,100.00
2022-10-09T04:15:55.928Z,100.00
2022-10-09T04:18:22.572Z,100.00
2022-10-09T04:20:51.177Z,100.00
2022-10-09T04:23:18.705Z,100.00
2022-10-09T04:25:45.783Z,100.00
2022-10-09T04:28:12.577Z,100.00
2022-10-09T04:30:39.078Z,100.00
2022-10-09T04:33:10.350Z,100.00
2022-10-09T04:35:49.093Z,100.00
2022-10-09T04:38:15.488Z,100.00
2022-10-09T04:40:41.810Z,100.00
2022-10-09T04:43:08.361Z,100.00
2022-10-09T04:45:39.568Z,100.00
2022-10-09T04:48:05.953Z,100.00
2022-10-09T04:50:32.328Z,100.00
2022-10-09T04:52:58.708Z,100.00
2022-10-09T04:55:25.462Z,100.00
2022-10-09T04:57:51.800Z,100.00
2022-10-09T05:00:18.238Z,100.00
2022-10-09T05:02:44.552Z,100.00
2022-10-09T05:05:10.890Z,100.00
2022-10-09T05:07:38.430Z,100.00
2022-10-09T05:10:06.001Z,100.00
2022-10-09T05:12:32.305Z,100.00
2022-10-09T05:14:58.609Z,100.00
2022-10-09T05:17:24.993Z,100.00
2022-10-09T05:19:51.381Z,100.00
2022-10-09T05:22:17.697Z,100.00
2022-10-09T05:24:43.981Z,100.00
2022-10-09T05:27:10.322Z,100.00
2022-10-09T05:29:36.651Z,100.00
2022-10-09T05:32:03.206Z,100.00
2022-10-09T05:34:29.586Z,100.00
2022-10-09T05:36:55.911Z,100.00
2022-10-09T05:39:22.238Z,100.00
2022-10-09T05:41:48.549Z,100.00
2022-10-09T05:44:14.872Z,100.00
2022-10-09T05:46:41.237Z,100.00
2022-10-09T05:49:07.638Z,100.00
2022-10-09T05:51:37.157Z,100.00
2022-10-09T05:54:04.813Z,100.00
2022-10-09T05:56:33.732Z,100.00
2022-10-09T05:59:01.675Z,100.00
2022-10-09T06:01:31.710Z,100.00
2022-10-09T06:03:59.478Z,100.00
2022-10-09T06:06:28.976Z,100.00
2022-10-09T06:08:55.645Z,100.00
2022-10-09T06:11:23.271Z,100.00
2022-10-09T06:13:51.088Z,100.00
2022-10-09T06:16:18.030Z,100.00
2022-10-09T06:18:49.295Z,100.00
2022-10-09T06:21:16.700Z,100.00
2022-10-09T06:23:43.089Z,100.00
2022-10-09T06:26:12.051Z,100.00
2022-10-09T06:28:38.736Z,100.00
2022-10-09T06:31:08.839Z,100.00
2022-10-09T06:33:37.565Z,100.00
2022-10-09T06:36:10.221Z,100.00
2022-10-09T06:38:37.572Z,100.00
2022-10-09T06:41:06.191Z,100.00
2022-10-09T06:43:33.169Z,100.00
2022-10-09T06:46:18.793Z,100.00
2022-10-09T06:48:45.271Z,100.00
2022-10-09T06:51:14.781Z,100.00
2022-10-09T06:53:43.876Z,100.00
2022-10-09T06:56:11.209Z,100.00
2022-10-09T06:58:38.677Z,100.00
2022-10-09T07:01:11.263Z,100.00
2022-10-09T07:03:38.676Z,100.00
2022-10-09T07:06:06.991Z,100.00
2022-10-09T07:08:33.681Z,100.00
2022-10-09T07:11:00.122Z,100.00
2022-10-09T07:13:26.461Z,100.00
2022-10-09T07:15:52.832Z,100.00
2022-10-09T07:18:19.200Z,100.00
2022-10-09T07:20:45.559Z,100.00
2022-10-09T07:23:11.877Z,100.00
2022-10-09T07:25:38.528Z,100.00
2022-10-09T07:28:04.890Z,100.00
2022-10-09T07:30:31.310Z,100.00
2022-10-09T07:32:57.639Z,100.00
2022-10-09T07:35:23.946Z,100.00
2022-10-09T07:37:51.407Z,100.00
2022-10-09T07:40:17.766Z,100.00
2022-10-09T07:42:44.061Z,100.00
2022-10-09T07:45:10.556Z,100.00
2022-10-09T07:47:36.881Z,100.00
2022-10-09T07:50:03.385Z,100.00
2022-10-09T07:52:29.797Z,100.00
2022-10-09T07:54:56.109Z,100.00
2022-10-09T07:57:22.451Z,100.00
2022-10-09T07:59:48.782Z,100.00
2022-10-09T08:02:15.138Z,100.00
2022-10-09T08:04:41.468Z,100.00
2022-10-09T08:07:07.786Z,100.00
2022-10-09T08:09:34.101Z,100.00
2022-10-09T08:12:00.427Z,100.00
2022-10-09T08:14:26.816Z,100.00
2022-10-09T08:16:53.333Z,100.00
2022-10-09T08:19:19.664Z,100.00
2022-10-09T08:21:46.125Z,100.00
2022-10-09T08:24:13.069Z,100.00
2022-10-09T08:26:39.381Z,100.00
2022-10-09T08:29:08.252Z,100.00
2022-10-09T08:31:34.701Z,100.00
2022-10-09T08:34:02.922Z,100.00
2022-10-09T08:36:30.277Z,100.00
2022-10-09T08:38:56.607Z,100.00
2022-10-09T08:41:28.706Z,100.00
2022-10-09T08:44:20.307Z,100.00
2022-10-09T08:46:57.248Z,100.00
2022-10-09T08:49:26.426Z,100.00
2022-10-09T08:51:56.418Z,100.00
2022-10-09T08:54:41.126Z,100.00
2022-10-09T08:57:16.421Z,100.00
2022-10-09T08:59:44.061Z,100.00
2022-10-09T09:02:41.105Z,100.00
2022-10-09T09:05:19.206Z,98.62
2022-10-09T09:07:59.968Z,98.12
2022-10-09T09:10:33.468Z,97.84
2022-10-09T09:13:37.705Z,97.13
2022-10-09T09:16:04.030Z,95.70
2022-10-09T09:19:07.711Z,96.33
2022-10-09T09:21:47.267Z,94.28
2022-10-09T09:24:42.134Z,94.84
2022-10-09T09:27:16.001Z,93.33
2022-10-09T09:30:01.664Z,92.51
2022-10-09T09:32:30.805Z,91.51
2022-10-09T09:35:08.081Z,91.61
2022-10-09T09:37:34.599Z,90.98
2022-10-09T09:42:47.649Z,86.57
2022-10-09T09:45:21.755Z,87.07
2022-10-09T09:48:13.063Z,85.43
2022-10-09T09:50:50.568Z,83.97
2022-10-09T09:53:34.472Z,84.65
2022-10-09T09:56:01.159Z,82.75
2022-10-09T09:58:34.709Z,82.00
2022-10-09T10:01:03.175Z,83.65
2022-10-09T10:03:31.002Z,83.37
2022-10-09T10:05:57.597Z,82.24
2022-10-09T10:08:28.037Z,82.29
2022-10-09T10:10:58.690Z,80.91
2022-10-09T10:13:33.668Z,81.37
2022-10-09T10:16:00.438Z,79.53
2022-10-09T10:18:32.281Z,77.01
2022-10-09T10:21:12.838Z,78.31
2022-10-09T10:23:53.299Z,78.14
2022-10-09T10:26:28.855Z,76.29
2022-10-09T10:29:09.675Z,75.68
2022-10-09T10:31:45.707Z,75.99
2022-10-09T10:34:23.042Z,74.22
2022-10-09T10:37:01.066Z,73.74
2022-10-09T10:40:07.349Z,75.16
2022-10-09T10:42:57.344Z,73.95
2022-10-09T10:45:43.982Z,72.55
2022-10-09T10:48:19.541Z,72.08
2022-10-09T10:51:01.778Z,71.39
2022-10-09T10:53:40.267Z,71.67
2022-10-09T10:56:14.501Z,71.49
2022-10-09T10:59:04.634Z,70.32
2022-10-09T11:01:45.567Z,70.96
2022-10-09T11:04:33.606Z,69.26
2022-10-09T11:07:22.510Z,67.34
2022-10-09T11:10:18.299Z,68.21
2022-10-09T11:12:48.452Z,67.65
2022-10-09T11:15:31.370Z,67.81
2022-10-09T11:18:24.278Z,67.03
2022-10-09T11:21:02.699Z,67.23
2022-10-09T11:23:43.054Z,66.27
2022-10-09T11:26:15.104Z,65.27
2022-10-09T11:29:04.712Z,62.86
2022-10-09T11:31:40.147Z,64.25
2022-10-09T11:34:14.198Z,61.91
2022-10-09T11:36:43.054Z,63.56
2022-10-09T11:39:19.668Z,63.73
2022-10-09T11:41:48.068Z,60.89
2022-10-09T11:44:26.289Z,61.64
2022-10-09T11:47:11.415Z,60.59
2022-10-09T11:49:55.841Z,59.61
2022-10-09T11:52:39.377Z,59.06
2022-10-09T11:55:18.263Z,58.99
2022-10-09T11:57:44.746Z,58.28
2022-10-09T12:00:11.565Z,58.06
2022-10-09T12:02:38.701Z,59.63
2022-10-09T12:05:34.884Z,57.81
2022-10-09T12:08:15.456Z,54.80
2022-10-09T12:10:54.884Z,56.22
2022-10-09T12:13:58.230Z,54.59
2022-10-09T12:16:39.006Z,56.57
2022-10-09T12:19:34.615Z,55.19
2022-10-09T12:22:06.522Z,56.04
2022-10-09T12:24:43.530Z,55.96
2022-10-09T12:27:20.933Z,54.80
2022-10-09T12:29:54.718Z,55.32
2022-10-09T12:32:31.310Z,53.38
2022-10-09T12:34:58.100Z,54.00
2022-10-09T12:37:34.962Z,54.36
2022-10-09T12:40:22.156Z,54.26
2022-10-09T12:42:52.263Z,53.37
2022-10-09T12:45:29.845Z,53.33
2022-10-09T12:47:59.267Z,53.14
2022-10-09T12:50:33.259Z,54.21
2022-10-09T12:53:05.748Z,52.04
2022-10-09T12:55:40.651Z,52.85
2022-10-09T12:58:26.935Z,50.11
2022-10-09T13:00:56.534Z,50.62
2022-10-09T13:03:33.006Z,49.70
2022-10-09T13:06:00.204Z,47.71
2022-10-09T13:08:38.355Z,48.14
2022-10-09T13:11:29.032Z,47.98
2022-10-09T13:13:55.950Z,49.64
2022-10-09T13:16:24.318Z,48.96
2022-10-09T13:19:01.213Z,48.38
2022-10-09T13:21:35.163Z,48.31
2022-10-09T13:24:13.203Z,48.28
2022-10-09T13:26:42.423Z,47.64
2022-10-09T13:29:08.908Z,46.83
2022-10-09T13:31:36.890Z,47.40
2022-10-09T13:34:11.980Z,46.77
2022-10-09T13:36:38.431Z,46.50
2022-10-09T13:39:05.303Z,46.86
2022-10-09T13:41:32.578Z,47.87
2022-10-09T13:43:59.092Z,49.19
2022-10-09T13:46:25.428Z,47.77
2022-10-09T13:48:51.768Z,47.31
2022-10-09T13:51:18.141Z,47.21
2022-10-09T13:53:44.465Z,47.31
2022-10-09T13:56:10.924Z,49.00
2022-10-09T13:58:37.276Z,49.39
2022-10-09T14:01:04.029Z,49.26
2022-10-09T14:03:30.441Z,48.88
2022-10-09T14:06:01.230Z,48.78
2022-10-09T14:08:27.537Z,49.95
2022-10-09T14:10:54.338Z,49.56
2022-10-09T14:13:21.730Z,49.25
2022-10-09T14:15:48.390Z,50.21
2022-10-09T14:18:14.759Z,50.96
2022-10-09T14:20:41.120Z,51.17
2022-10-09T14:23:07.432Z,52.71
2022-10-09T14:25:34.452Z,51.36
2022-10-09T14:28:00.813Z,51.01
2022-10-09T14:30:27.512Z,51.71
2022-10-09T14:32:55.199Z,50.95
2022-10-09T14:35:21.884Z,51.72
2022-10-09T14:37:48.281Z,52.49
2022-10-09T14:40:14.952Z,52.11
2022-10-09T14:42:41.532Z,52.29
2022-10-09T14:45:09.049Z,53.25
2022-10-09T14:47:35.590Z,53.47
2022-10-09T14:50:01.939Z,53.59
2022-10-09T14:52:28.276Z,53.92
2022-10-09T14:54:54.589Z,53.73
2022-10-09T14:57:20.895Z,54.51
2022-10-09T14:59:47.196Z,55.21
2022-10-09T15:02:15.450Z,54.41
2022-10-09T15:04:42.001Z,55.06
2022-10-09T15:07:08.351Z,55.70
2022-10-09T15:09:34.655Z,55.74
2022-10-09T15:12:00.965Z,54.45
2022-10-09T15:14:27.333Z,55.92
2022-10-09T15:16:53.670Z,56.67
2022-10-09T15:19:20.327Z,55.92
2022-10-09T15:21:46.764Z,55.79
2022-10-09T15:24:13.289Z,57.31
2022-10-09T15:26:39.736Z,58.02
2022-10-09T15:29:10.366Z,58.35
2022-10-09T15:31:39.337Z,59.61
2022-10-09T15:34:07.646Z,58.47
2022-10-09T15:36:37.796Z,58.76
2022-10-09T15:39:08.730Z,58.71
2022-10-09T15:41:37.475Z,59.14
2022-10-09T15:44:22.822Z,59.29
2022-10-09T15:46:49.678Z,59.51
2022-10-09T15:49:16.419Z,59.84
2022-10-09T15:51:42.917Z,60.62
2022-10-09T15:54:11.228Z,60.18
2022-10-09T15:56:40.138Z,58.73
2022-10-09T15:59:07.338Z,59.24
2022-10-09T16:01:33.753Z,59.91
2022-10-09T16:04:00.108Z,59.37
2022-10-09T16:06:26.478Z,59.78
2022-10-09T16:08:56.758Z,60.16
2022-10-09T16:11:26.264Z,61.07
2022-10-09T16:13:53.962Z,61.47
2022-10-09T16:16:23.430Z,61.79
2022-10-09T16:18:54.945Z,62.36
2022-10-09T16:21:26.872Z,63.36
2022-10-09T16:23:58.442Z,62.92
2022-10-09T16:26:26.627Z,61.87
2022-10-09T16:28:53.072Z,61.94
2022-10-09T16:31:25.921Z,61.62
2022-10-09T16:33:52.813Z,61.35
2022-10-09T16:36:20.460Z,62.67
2022-10-09T16:38:47.323Z,62.95
2022-10-09T16:41:17.716Z,62.77
2022-10-09T16:43:45.869Z,62.85
2022-10-09T16:46:17.529Z,63.03
2022-10-09T16:48:44.053Z,63.05
2022-10-09T16:51:12.857Z,63.71
2022-10-09T16:53:40.191Z,63.16
2022-10-09T16:56:11.835Z,62.64
2022-10-09T16:58:39.364Z,63.14
2022-10-09T17:01:09.875Z,63.89
2022-10-09T17:03:40.226Z,63.89
2022-10-09T17:06:11.740Z,64.35
2022-10-09T17:08:38.310Z,65.31
2022-10-09T17:11:09.340Z,64.83
2022-10-09T17:13:36.507Z,65.26
2022-10-09T17:16:07.726Z,66.02
2022-10-09T17:18:35.509Z,67.04
2022-10-09T17:21:06.371Z,67.11
2022-10-09T17:23:33.316Z,67.44
2022-10-09T17:26:04.151Z,68.47
2022-10-09T17:28:30.604Z,67.96
2022-10-09T17:30:57.254Z,67.40
2022-10-09T17:33:23.558Z,68.32
2022-10-09T17:35:49.864Z,68.85
2022-10-09T17:38:18.563Z,68.40
2022-10-09T17:40:44.905Z,68.73
2022-10-09T17:43:11.290Z,69.75
2022-10-09T17:45:39.472Z,70.26
2022-10-09T17:48:06.908Z,68.95
2022-10-09T17:50:33.407Z,69.95
2022-10-09T17:53:00.492Z,69.93
2022-10-09T17:55:27.539Z,69.81
2022-10-09T17:57:55.082Z,70.41
2022-10-09T18:00:22.142Z,70.79
2022-10-09T18:02:49.145Z,70.88
2022-10-09T18:05:15.468Z,72.15
2022-10-09T18:07:41.839Z,71.52
2022-10-09T18:10:08.869Z,72.26
2022-10-09T18:12:35.185Z,72.75
2022-10-09T18:15:02.782Z,73.11
2022-10-09T18:17:31.606Z,73.48
2022-10-09T18:19:58.009Z,74.14
2022-10-09T18:22:24.322Z,74.69
2022-10-09T18:24:50.712Z,75.05
2022-10-09T18:27:17.140Z,75.13
2022-10-09T18:29:43.498Z,75.57
2022-10-09T18:32:09.814Z,75.94
2022-10-09T18:34:39.373Z,76.50
2022-10-09T18:37:06.591Z,77.13
2022-10-09T18:39:33.321Z,77.75
2022-10-09T18:42:02.004Z,78.20
2022-10-09T18:44:39.958Z,78.10
2022-10-09T18:47:11.686Z,78.75
2022-10-09T18:49:43.329Z,79.49
2022-10-09T18:52:11.233Z,79.30
2022-10-09T18:54:39.024Z,80.01
2022-10-09T18:57:05.934Z,80.98
2022-10-09T18:59:35.658Z,81.14
2022-10-09T19:02:02.013Z,81.09
2022-10-09T19:04:28.475Z,82.67
2022-10-09T19:06:55.112Z,82.39
2022-10-09T19:09:23.921Z,83.29
2022-10-09T19:11:52.517Z,83.26
2022-10-09T19:14:19.155Z,83.53
2022-10-09T19:16:45.589Z,84.41
2022-10-09T19:19:12.130Z,85.67
2022-10-09T19:21:44.910Z,85.89
2022-10-09T19:24:12.225Z,86.20
2022-10-09T19:26:40.095Z,86.19
2022-10-09T19:29:07.656Z,86.98
2022-10-09T19:31:35.474Z,86.83
2022-10-09T19:34:04.068Z,86.77
2022-10-09T19:36:34.993Z,87.52
2022-10-09T19:39:01.990Z,87.44
2022-10-09T19:41:28.561Z,87.87
2022-10-09T19:43:54.878Z,88.10
2022-10-09T19:46:22.607Z,89.25
2022-10-09T19:48:52.702Z,88.91
2022-10-09T19:51:25.545Z,89.20
2022-10-09T19:53:53.395Z,90.15
2022-10-09T19:56:22.928Z,91.16
2022-10-09T19:58:49.890Z,93.00
2022-10-09T20:01:21.608Z,94.34
2022-10-09T20:03:53.423Z,93.69
2022-10-09T20:06:19.856Z,94.13
2022-10-09T20:08:48.706Z,95.72
2022-10-09T20:11:15.047Z,97.31
2022-10-09T20:13:42.945Z,97.60
2022-10-09T20:16:12.228Z,98.28
2022-10-09T20:18:42.505Z,97.90
2022-10-09T20:21:13.254Z,99.24
2022-10-09T20:23:41.314Z,100.00
2022-10-09T20:26:11.617Z,100.00
2022-10-09T20:28:38.703Z,100.00
2022-10-09T20:31:07.830Z,100.00
2022-10-09T20:33:35.523Z,100.00
2022-10-09T20:36:02.913Z,100.00
2022-10-09T20:38:29.323Z,100.00
2022-10-09T20:41:03.782Z,100.00
2022-10-09T20:43:30.273Z,100.00
2022-10-09T20:45:56.597Z,100.00
2022-10-09T20:48:23.061Z,100.00
2022-10-09T20:50:49.394Z,100.00
2022-10-09T20:53:16.707Z,100.00
2022-10-09T20:55:43.162Z,100.00
2022-10-09T20:58:09.496Z,100.00
2022-10-09T21:00:41.400Z,100.00
2022-10-09T21:03:12.171Z,100.00
2022-10-09T21:05:43.301Z,100.00
2022-10-09T21:08:09.969Z,100.00
2022-10-09T21:10:42.873Z,100.00
2022-10-09T21:13:09.496Z,100.00
2022-10-09T21:15:43.587Z,100.00
2022-10-09T21:18:10.863Z,100.00
2022-10-09T21:20:39.041Z,100.00
2022-10-09T21:23:05.886Z,100.00
2022-10-09T21:25:32.941Z,100.00
2022-10-09T21:27:59.276Z,100.00
2022-10-09T21:30:26.229Z,100.00
2022-10-09T21:32:52.899Z,100.00
2022-10-09T21:35:19.513Z,100.00
2022-10-09T21:37:46.021Z,100.00
2022-10-09T21:40:12.374Z,100.00
2022-10-09T21:42:38.765Z,100.00
2022-10-09T21:45:05.635Z,100.00
2022-10-09T21:47:32.017Z,100.00
2022-10-09T21:49:58.362Z,100.00
2022-10-09T21:52:24.697Z,100.00
2022-10-09T21:54:51.142Z,100.00
2022-10-09T21:57:17.489Z,100.00
2022-10-09T21:59:43.851Z,100.00
2022-10-09T22:02:10.184Z,100.00
2022-10-09T22:04:36.680Z,100.00
2022-10-09T22:07:05.272Z,100.00
2022-10-09T22:09:31.648Z,100.00
2022-10-09T22:11:58.087Z,100.00
2022-10-09T22:14:24.510Z,100.00
2022-10-09T22:16:50.868Z,100.00
2022-10-09T22:19:18.649Z,100.00
2022-10-09T22:21:45.004Z,100.00
2022-10-09T22:24:12.952Z,100.00
2022-10-09T22:26:39.842Z,100.00
2022-10-09T22:29:06.421Z,100.00
2022-10-09T22:31:32.853Z,100.00
2022-10-09T22:34:01.442Z,100.00
2022-10-09T22:36:30.403Z,100.00
2022-10-09T22:38:58.674Z,100.00
2022-10-09T22:41:28.852Z,100.00
2022-10-09T22:44:00.338Z,100.00
2022-10-09T22:46:29.246Z,100.00
2022-10-09T22:48:55.729Z,100.00
2022-10-09T22:51:23.940Z,100.00
2022-10-09T22:53:50.374Z,100.00
2022-10-09T22:56:38.538Z,100.00
2022-10-09T22:59:06.999Z,100.00
2022-10-09T23:01:40.264Z,100.00
2022-10-09T23:04:10.418Z,100.00
2022-10-09T23:06:37.200Z,100.00
2022-10-09T23:09:05.914Z,100.00
2022-10-09T23:11:32.332Z,100.00
2022-10-09T23:13:59.962Z,100.00
2022-10-09T23:16:28.630Z,100.00
2022-10-09T23:18:57.776Z,100.00
2022-10-09T23:21:24.599Z,100.00
2022-10-09T23:23:51.913Z,100.00
2022-10-09T23:26:21.290Z,100.00
2022-10-09T23:28:56.581Z,100.00
2022-10-09T23:31:23.789Z,100.00
2022-10-09T23:33:50.318Z,100.00
2022-10-09T23:36:20.211Z,100.00
2022-10-09T23:38:47.094Z,100.00
2022-10-09T23:41:16.370Z,100.00
2022-10-09T23:43:44.134Z,100.00
2022-10-09T23:46:14.365Z,100.00
2022-10-09T23:48:41.433Z,100.00
2022-10-09T23:51:10.832Z,100.00
2022-10-09T23:53:37.705Z,100.00
2022-10-09T23:56:25.419Z,100.00
2022-10-09T23:58:53.203Z,100.00
